Time;durP1;ratioP1;P1;durP2;ratioP2;P2;SDS_P1;SDS_P2;PMS_P1;PMS_P2;Temp;Humidity;BMP_temperature;BMP_pressure;BME280_temperature;BME280_humidity;BME280_pressure;Samples;Min_cycle;Max_cycle;Signal;HPM_P1;HPM_P2
2022/02/26 00:00:27;;;;;;;2.17;1.33;;;;;;;26.37;28.09;97804.81;5005641;28;20033;-30
2022/02/26 00:02:53;;;;;;;4.72;1.20;;;;;;;26.37;27.96;97812.69;5005289;28;20395;-29
2022/02/26 00:05:19;;;;;;;2.25;1.02;;;;;;;26.37;28.07;97799.53;5005939;28;20045;-30
2022/02/26 00:07:44;;;;;;;2.50;0.95;;;;;;;26.37;28.10;97803.03;5004200;28;20039;-31
2022/02/26 00:10:09;;;;;;;2.72;1.10;;;;;;;26.35;28.08;97808.34;5008039;28;20029;-29
2022/02/26 00:12:35;;;;;;;1.75;1.05;;;;;;;26.35;27.97;97800.47;5007271;28;20033;-28
2022/02/26 00:15:00;;;;;;;3.42;1.13;;;;;;;26.35;27.98;97805.72;5005503;28;20029;-30
2022/02/26 00:17:26;;;;;;;3.22;1.17;;;;;;;26.34;28.10;97804.03;5000462;28;20547;-29
2022/02/26 00:19:51;;;;;;;2.30;1.15;;;;;;;26.35;27.97;97810.97;5003416;28;20033;-29
2022/02/26 00:22:17;;;;;;;1.85;1.10;;;;;;;26.35;28.05;97818.88;4999449;28;20028;-30
2022/02/26 00:24:42;;;;;;;2.25;1.00;;;;;;;26.34;28.03;97814.53;5001264;28;20025;-29
2022/02/26 00:27:07;;;;;;;1.98;0.98;;;;;;;26.35;28.04;97818.88;5000650;28;20479;-29
2022/02/26 00:29:34;;;;;;;3.13;0.90;;;;;;;26.36;27.95;97824.97;5002937;28;20045;-29
2022/02/26 00:32:01;;;;;;;1.85;1.02;;;;;;;26.35;27.91;97834.63;5003340;28;20079;-28
2022/02/26 00:34:27;;;;;;;1.40;0.88;;;;;;;26.34;27.86;97830.31;5001735;28;20526;-30
2022/02/26 00:36:52;;;;;;;2.38;0.90;;;;;;;26.33;28.15;97830.34;5007533;28;20037;-31
2022/02/26 00:39:18;;;;;;;2.75;1.08;;;;;;;26.33;28.20;97839.09;5003878;28;20034;-28
2022/02/26 00:41:43;;;;;;;2.30;1.00;;;;;;;26.33;27.98;97847.00;4999670;28;20030;-30
2022/02/26 00:44:09;;;;;;;1.85;1.13;;;;;;;26.32;28.10;97840.00;5000834;28;20033;-29
2022/02/26 00:46:35;;;;;;;1.77;0.75;;;;;;;26.34;28.03;97851.31;5001559;28;20095;-29
2022/02/26 00:51:44;;;;;;;2.28;1.13;;;;;;;26.33;28.05;97847.00;5003230;28;20037;-29
2022/02/26 00:54:09;;;;;;;3.97;0.90;;;;;;;26.33;27.98;97859.25;5002913;28;20029;-32
2022/02/26 00:56:35;;;;;;;1.70;0.85;;;;;;;26.33;27.88;97857.50;5002284;28;20494;-30
2022/02/26 00:59:00;;;;;;;1.83;0.85;;;;;;;26.32;27.96;97860.19;5004300;28;20095;-30
2022/02/26 01:01:26;;;;;;;1.80;0.77;;;;;;;26.31;27.93;97869.81;5002364;28;20056;-31
2022/02/26 01:03:51;;;;;;;1.50;0.90;;;;;;;26.31;28.03;97869.00;5001323;28;22468;-31
2022/02/26 01:06:16;;;;;;;3.40;0.90;;;;;;;26.30;28.04;97868.13;5004465;28;20037;-30
2022/02/26 01:08:42;;;;;;;0.90;0.70;;;;;;;26.30;27.82;97873.38;5003679;28;20731;-29
2022/02/26 01:11:07;;;;;;;1.35;0.80;;;;;;;26.30;27.99;97881.25;5004267;28;20982;-31
2022/02/26 01:13:33;;;;;;;1.70;1.00;;;;;;;26.30;28.02;97872.50;5002256;28;20759;-29
2022/02/26 01:15:58;;;;;;;1.27;1.00;;;;;;;26.29;27.92;97879.56;5001197;28;20029;-30
2022/02/26 01:18:24;;;;;;;1.88;1.05;;;;;;;26.29;27.94;97876.06;5001829;28;20582;-28
2022/02/26 01:20:49;;;;;;;2.08;0.98;;;;;;;26.28;27.97;97880.44;5001039;28;20029;-30
2022/02/26 01:23:14;;;;;;;2.08;1.00;;;;;;;26.28;27.96;97879.59;4999142;28;20027;-26
2022/02/26 01:25:40;;;;;;;2.05;0.90;;;;;;;26.28;27.86;97875.19;5004604;28;20094;-29
2022/02/26 01:28:05;;;;;;;1.42;0.77;;;;;;;26.29;28.02;97883.94;5007005;28;20036;-28
2022/02/26 01:30:31;;;;;;;2.47;0.98;;;;;;;26.28;27.99;97882.22;5006497;28;20038;-28
2022/02/26 01:32:56;;;;;;;1.15;0.98;;;;;;;26.28;28.04;97888.31;5008960;28;20049;-29
2022/02/26 01:35:22;;;;;;;2.65;0.70;;;;;;;26.26;27.87;97879.66;5010613;28;20037;-30
2022/02/26 01:37:47;;;;;;;0.82;0.60;;;;;;;26.28;27.88;97884.84;5010917;28;20029;-30
2022/02/26 01:40:13;;;;;;;1.02;0.65;;;;;;;26.24;28.04;97884.09;5009749;28;20021;-29
2022/02/26 01:42:39;;;;;;;1.00;0.77;;;;;;;26.27;27.83;97886.63;5005813;28;20064;-29
2022/02/26 01:45:13;;;;;;;2.63;1.00;;;;;;;26.25;28.01;97885.81;4992986;28;20026;-30
2022/02/26 01:47:38;;;;;;;1.98;1.00;;;;;;;26.26;27.97;97884.91;5007271;28;20033;-30
2022/02/26 01:50:04;;;;;;;1.50;0.75;;;;;;;26.26;28.03;97881.41;5011015;28;20150;-29
2022/02/26 01:52:30;;;;;;;1.33;0.80;;;;;;;26.26;27.90;97887.53;5013276;28;20029;-30
2022/02/26 01:54:55;;;;;;;1.45;0.90;;;;;;;26.25;28.07;97885.81;5011080;28;20061;-30
2022/02/26 01:57:20;;;;;;;2.17;1.00;;;;;;;26.25;28.03;97885.81;4985522;28;20025;-30
2022/02/26 01:59:46;;;;;;;1.55;0.77;;;;;;;26.26;27.91;97884.03;5004205;28;20029;-30
2022/02/26 02:02:11;;;;;;;1.20;0.70;;;;;;;26.24;28.04;97876.22;5001406;28;20499;-30
2022/02/26 02:04:36;;;;;;;1.52;0.60;;;;;;;26.24;27.88;97873.59;5005202;28;20035;-32
2022/02/26 02:07:02;;;;;;;2.10;1.00;;;;;;;26.23;28.06;97869.22;5001359;28;20029;-28
2022/02/26 02:09:28;;;;;;;1.33;0.60;;;;;;;26.23;27.75;97872.72;5001084;28;20025;-30
2022/02/26 02:11:53;;;;;;;1.65;0.88;;;;;;;26.23;28.03;97871.84;4999703;28;20073;-32
2022/02/26 02:14:18;;;;;;;0.82;0.60;;;;;;;26.23;28.08;97877.09;5004224;28;20436;-29
2022/02/26 02:16:44;;;;;;;1.50;0.63;;;;;;;26.22;28.03;97873.63;5003928;28;20034;-29
2022/02/26 02:19:11;;;;;;;1.77;0.98;;;;;;;26.22;28.01;97878.91;5000203;28;20029;-31
2022/02/26 02:21:37;;;;;;;2.47;0.80;;;;;;;26.22;28.13;97878.03;5000396;28;20040;-28
2022/02/26 02:24:03;;;;;;;0.65;0.50;;;;;;;26.22;27.94;97875.41;5000757;28;20033;-31
2022/02/26 02:26:28;;;;;;;0.88;0.60;;;;;;;26.21;28.04;97877.16;5002655;28;20030;-29
2022/02/26 02:28:54;;;;;;;0.65;0.55;;;;;;;26.21;28.03;97873.69;5002500;28;20095;-30
2022/02/26 02:31:19;;;;;;;1.40;0.70;;;;;;;26.20;28.01;97877.25;4999721;28;20112;-38
2022/02/26 02:33:46;;;;;;;1.58;0.77;;;;;;;26.21;27.90;97884.19;5003035;28;20026;-29
2022/02/26 02:36:11;;;;;;;1.05;0.60;;;;;;;26.20;27.92;97877.25;5003272;28;20029;-28
2022/02/26 02:38:37;;;;;;;1.02;0.57;;;;;;;26.20;28.12;97882.50;5001683;28;20026;-30
2022/02/26 02:41:02;;;;;;;1.30;0.60;;;;;;;26.20;27.93;97890.38;5000777;28;20041;-32
2022/02/26 02:43:28;;;;;;;3.10;0.60;;;;;;;26.19;28.06;97891.28;5002847;28;20087;-31
2022/02/26 02:45:53;;;;;;;0.68;0.68;;;;;;;26.19;27.94;97899.16;5003036;28;20045;-29
2022/02/26 02:48:19;;;;;;;1.65;0.77;;;;;;;26.19;27.89;97901.78;5002028;28;20033;-31
2022/02/26 02:50:44;;;;;;;1.67;0.85;;;;;;;26.19;28.09;97899.16;5003388;28;20033;-30
2022/02/26 02:53:10;;;;;;;2.00;0.80;;;;;;;26.18;27.98;97898.31;5002090;28;20049;-30
2022/02/26 02:55:35;;;;;;;2.08;0.70;;;;;;;26.18;28.16;97890.44;5003228;28;20046;-30
2022/02/26 02:58:01;;;;;;;0.90;0.60;;;;;;;26.18;28.02;97903.56;5000366;28;20033;-29
2022/02/26 03:00:27;;;;;;;1.38;0.50;;;;;;;26.17;27.88;97901.00;5004455;28;20030;-28
2022/02/26 03:02:52;;;;;;;1.05;0.65;;;;;;;26.17;28.19;97909.75;5001653;28;20163;-31
2022/02/26 03:05:21;;;;;;;1.08;0.60;;;;;;;26.18;28.02;97913.22;5006106;28;20029;-29
2022/02/26 03:07:49;;;;;;;0.73;0.40;;;;;;;26.17;27.92;97908.88;5001908;28;20040;-28
2022/02/26 03:10:15;;;;;;;1.02;0.68;;;;;;;26.17;27.93;97908.88;5002173;28;20567;-28
2022/02/26 03:12:40;;;;;;;1.35;0.57;;;;;;;26.17;27.95;97914.13;5003414;28;20052;-29
2022/02/26 03:15:06;;;;;;;0.70;0.57;;;;;;;26.17;28.06;97915.00;5003358;28;20033;-31
2022/02/26 03:17:31;;;;;;;1.15;0.70;;;;;;;26.16;28.06;97917.69;5004252;28;20527;-30
2022/02/26 03:19:57;;;;;;;1.98;0.55;;;;;;;26.16;28.04;97921.13;5005783;28;20025;-30
2022/02/26 03:22:22;;;;;;;0.82;0.65;;;;;;;26.15;27.93;97922.06;5007460;28;20103;-30
2022/02/26 03:24:47;;;;;;;3.55;0.63;;;;;;;26.16;27.94;97928.19;5009683;28;20022;-29
2022/02/26 03:27:13;;;;;;;1.60;0.70;;;;;;;26.15;28.10;97927.31;5008573;28;20033;-30
2022/02/26 03:29:38;;;;;;;0.80;0.50;;;;;;;26.14;27.81;97925.63;5010359;28;20041;-29
2022/02/26 03:32:07;;;;;;;1.67;0.80;;;;;;;26.15;27.98;97921.19;5014139;28;20026;-30
2022/02/26 03:34:32;;;;;;;0.68;0.50;;;;;;;26.14;27.89;97930.00;5015107;28;20144;-30
2022/02/26 03:36:58;;;;;;;0.75;0.50;;;;;;;26.15;27.76;97931.69;5016652;28;20032;-30
2022/02/26 03:39:24;;;;;;;1.48;0.60;;;;;;;26.14;27.99;97930.88;5012449;28;20025;-29
2022/02/26 03:41:49;;;;;;;1.65;0.55;;;;;;;26.13;27.94;97929.16;5011139;28;20133;-28
2022/02/26 03:44:15;;;;;;;1.60;0.80;;;;;;;26.13;28.03;97929.16;5007741;28;20549;-28
2022/02/26 03:46:40;;;;;;;0.88;0.60;;;;;;;26.14;28.07;97935.25;5007433;28;20025;-32
2022/02/26 03:49:06;;;;;;;1.17;0.52;;;;;;;26.13;27.94;97928.28;5007421;28;20025;-29
2022/02/26 03:51:32;;;;;;;0.82;0.57;;;;;;;26.13;27.98;97936.16;5005905;28;20048;-29
2022/02/26 03:53:57;;;;;;;1.13;0.70;;;;;;;26.13;27.97;97944.06;5009477;28;20067;-30
2022/02/26 03:56:22;;;;;;;2.38;0.60;;;;;;;26.13;28.08;97941.41;5007705;28;20036;-29
2022/02/26 03:58:51;;;;;;;0.93;0.57;;;;;;;26.12;28.04;97944.97;5007557;28;20029;-30
2022/02/26 04:01:19;;;;;;;0.65;0.40;;;;;;;26.13;28.02;97941.41;5009000;28;20033;-31
2022/02/26 04:03:45;;;;;;;0.63;0.43;;;;;;;26.12;28.00;97939.72;5008130;28;20652;-30
2022/02/26 04:06:11;;;;;;;0.98;0.75;;;;;;;26.12;27.97;97947.59;5007522;28;20096;-30
2022/02/26 04:08:36;;;;;;;1.02;0.60;;;;;;;26.12;28.07;97942.34;5005764;28;20942;-29
2022/02/26 04:11:02;;;;;;;0.88;0.40;;;;;;;26.12;27.97;97947.59;5005972;28;20503;-29
2022/02/26 04:13:27;;;;;;;1.00;0.57;;;;;;;26.10;27.92;97945.84;5006333;28;20036;-32
2022/02/26 04:15:52;;;;;;;2.13;0.60;;;;;;;26.11;27.98;97957.22;5005802;28;20029;-30
2022/02/26 04:18:18;;;;;;;0.60;0.45;;;;;;;26.10;27.96;97955.53;5005408;28;20025;-29
2022/02/26 04:20:43;;;;;;;1.30;0.52;;;;;;;26.10;28.03;97961.63;5004142;28;20462;-30
2022/02/26 04:23:09;;;;;;;0.90;0.45;;;;;;;26.09;27.89;97962.53;5006860;28;20037;-29
2022/02/26 04:25:35;;;;;;;0.95;0.50;;;;;;;26.11;27.95;97975.63;5004850;28;20041;-28
2022/02/26 04:28:01;;;;;;;1.13;0.43;;;;;;;26.10;28.06;97968.66;4989339;28;20956;-29
2022/02/26 04:30:26;;;;;;;0.47;0.30;;;;;;;26.10;28.02;97973.91;5004389;28;21717;-29
2022/02/26 04:32:51;;;;;;;0.80;0.47;;;;;;;26.10;28.03;97972.13;5005446;28;20026;-30
2022/02/26 04:35:17;;;;;;;1.30;0.50;;;;;;;26.10;27.94;97971.28;5006459;28;20044;-30
2022/02/26 04:37:42;;;;;;;2.20;0.65;;;;;;;26.10;28.03;97977.38;5005092;28;20029;-30
2022/02/26 04:40:09;;;;;;;1.02;0.50;;;;;;;26.09;27.96;97970.41;5007786;28;20037;-30
2022/02/26 04:42:35;;;;;;;0.80;0.55;;;;;;;26.09;28.00;97970.41;5006537;28;20075;-29
2022/02/26 04:45:00;;;;;;;1.00;0.60;;;;;;;26.09;27.99;97980.94;5006913;28;20570;-31
2022/02/26 04:47:26;;;;;;;1.15;0.40;;;;;;;26.10;27.95;97976.53;4986367;28;20483;-29
2022/02/26 04:49:51;;;;;;;0.73;0.50;;;;;;;26.08;28.00;97973.97;5009010;28;20312;-29
2022/02/26 04:52:17;;;;;;;1.20;0.57;;;;;;;26.10;28.07;97981.81;5002245;28;20037;-29
2022/02/26 04:54:42;;;;;;;0.40;0.40;;;;;;;26.08;28.06;97979.22;5006136;28;20400;-30
2022/02/26 04:57:08;;;;;;;1.27;0.73;;;;;;;26.09;28.03;97980.94;5006171;28;20938;-29
2022/02/26 04:59:33;;;;;;;1.05;0.50;;;;;;;26.07;27.89;97982.78;5006770;28;20103;-28
2022/02/26 05:01:58;;;;;;;1.25;0.50;;;;;;;26.08;28.04;97983.59;5005708;28;20056;-29
2022/02/26 05:04:24;;;;;;;0.95;0.30;;;;;;;26.07;28.01;97982.78;5008634;28;20351;-30
2022/02/26 05:06:49;;;;;;;1.13;0.57;;;;;;;26.06;28.00;97981.06;5009381;28;20729;-29
2022/02/26 05:09:15;;;;;;;1.05;0.47;;;;;;;26.07;27.92;97982.78;5011513;28;20040;-32
2022/02/26 05:11:40;;;;;;;0.75;0.40;;;;;;;26.07;27.92;97988.03;5012898;28;20343;-29
2022/02/26 05:14:06;;;;;;;1.13;0.40;;;;;;;26.07;27.93;97988.03;5012184;28;20017;-29
2022/02/26 05:16:31;;;;;;;0.93;0.65;;;;;;;26.06;27.89;97980.19;5012960;28;20034;-28
2022/02/26 05:18:56;;;;;;;0.50;0.38;;;;;;;26.06;28.04;97985.44;5012507;28;20037;-28
2022/02/26 05:21:22;;;;;;;1.00;0.50;;;;;;;26.06;27.90;97985.44;5012927;28;20040;-31
2022/02/26 05:23:48;;;;;;;0.60;0.40;;;;;;;26.05;27.90;97989.81;5010749;28;20029;-29
2022/02/26 05:26:13;;;;;;;1.23;0.50;;;;;;;26.07;27.87;97995.03;5014126;28;20107;-29
2022/02/26 05:28:39;;;;;;;0.43;0.40;;;;;;;26.05;27.94;97995.09;5013764;28;20130;-28
2022/02/26 05:31:04;;;;;;;0.43;0.40;;;;;;;26.05;28.06;97995.09;5014779;28;20029;-29
2022/02/26 05:33:30;;;;;;;0.82;0.45;;;;;;;26.06;28.04;98001.19;5013893;28;20044;-29
2022/02/26 05:35:55;;;;;;;0.93;0.50;;;;;;;26.05;28.06;98002.97;5012175;28;20025;-29
2022/02/26 05:38:21;;;;;;;2.30;0.55;;;;;;;26.04;28.09;98003.88;5007528;28;20033;-29
2022/02/26 05:40:46;;;;;;;0.30;0.30;;;;;;;26.03;28.07;98010.06;5007590;28;20053;-34
2022/02/26 05:43:12;;;;;;;0.40;0.32;;;;;;;26.03;27.95;98012.69;5004113;28;20061;-29
2022/02/26 05:45:37;;;;;;;0.90;0.50;;;;;;;26.03;28.02;98017.94;5005003;28;20416;-28
2022/02/26 05:48:03;;;;;;;1.20;0.70;;;;;;;26.04;28.04;98013.50;5004813;28;20029;-31
2022/02/26 05:50:28;;;;;;;0.43;0.30;;;;;;;26.03;28.03;98017.06;5002729;28;20029;-29
2022/02/26 05:52:54;;;;;;;0.88;0.38;;;;;;;26.04;27.99;98022.28;5004120;28;20169;-29
2022/02/26 05:55:19;;;;;;;1.45;0.50;;;;;;;26.03;28.03;98023.19;4988687;28;20459;-29
2022/02/26 05:57:44;;;;;;;0.95;0.50;;;;;;;26.03;27.92;98020.56;5007001;28;20029;-31
2022/02/26 06:00:10;;;;;;;0.77;0.40;;;;;;;26.03;27.92;98028.44;5005695;28;20030;-30
2022/02/26 06:02:35;;;;;;;0.82;0.40;;;;;;;26.02;27.96;98026.72;5004997;28;20525;-29
2022/02/26 06:05:01;;;;;;;2.47;0.50;;;;;;;26.02;27.95;98028.50;5004725;28;20451;-28
2022/02/26 06:07:26;;;;;;;0.32;0.32;;;;;;;26.03;28.00;98032.81;5006564;28;20105;-32
2022/02/26 06:09:52;;;;;;;0.55;0.30;;;;;;;26.03;27.93;98044.19;5003739;28;20040;-30
2022/02/26 06:12:17;;;;;;;1.45;0.50;;;;;;;26.02;27.97;98034.63;5004298;28;20515;-30
2022/02/26 06:14:43;;;;;;;0.75;0.43;;;;;;;26.03;28.11;98038.94;5004193;28;20021;-31
2022/02/26 06:17:08;;;;;;;0.95;0.50;;;;;;;26.03;27.95;98040.69;5005484;28;20033;-31
2022/02/26 06:19:33;;;;;;;1.30;0.40;;;;;;;26.02;28.07;98042.50;5002613;28;20026;-28
2022/02/26 06:21:59;;;;;;;1.05;0.50;;;;;;;26.03;28.04;98053.84;5003401;28;20029;-32
2022/02/26 06:24:25;;;;;;;1.00;0.60;;;;;;;26.03;27.96;98052.06;5009855;28;20026;-29
2022/02/26 06:26:50;;;;;;;1.02;0.50;;;;;;;26.03;27.98;98053.84;5010339;28;20021;-29
2022/02/26 06:29:16;;;;;;;0.40;0.30;;;;;;;26.01;28.12;98056.50;5012395;28;20022;-28
2022/02/26 06:31:41;;;;;;;0.70;0.47;;;;;;;26.02;27.99;98058.25;5011910;28;20033;-29
2022/02/26 06:34:07;;;;;;;0.68;0.40;;;;;;;26.03;28.13;98065.22;5010741;28;20026;-30
2022/02/26 06:36:36;;;;;;;0.40;0.40;;;;;;;26.03;27.91;98065.22;5011688;28;20052;-30
2022/02/26 06:39:02;;;;;;;1.15;0.50;;;;;;;26.03;28.06;98062.59;5007352;28;20022;-29
2022/02/26 06:41:29;;;;;;;0.73;0.60;;;;;;;26.03;27.94;98067.84;5002736;28;20034;-28
2022/02/26 06:43:54;;;;;;;1.00;0.52;;;;;;;26.03;28.12;98074.84;5003601;28;20033;-30
2022/02/26 06:46:20;;;;;;;0.68;0.43;;;;;;;26.03;27.98;98080.09;5004717;28;20044;-31
2022/02/26 06:48:45;;;;;;;0.88;0.63;;;;;;;26.03;28.01;98088.84;5003752;28;20391;-28
2022/02/26 06:51:10;;;;;;;0.98;0.50;;;;;;;26.05;27.94;98088.81;5002867;28;20037;-29
2022/02/26 06:53:36;;;;;;;0.98;0.60;;;;;;;26.04;28.06;98093.19;5009579;28;20022;-28
2022/02/26 06:56:01;;;;;;;0.85;0.60;;;;;;;26.04;28.04;98087.06;5006508;28;20408;-30
2022/02/26 06:58:27;;;;;;;1.15;0.63;;;;;;;26.05;28.02;98094.06;5007743;28;20029;-31
2022/02/26 07:00:52;;;;;;;0.90;0.60;;;;;;;26.04;27.94;98093.19;5009448;28;20037;-30
2022/02/26 07:03:18;;;;;;;1.38;0.75;;;;;;;26.04;27.94;98089.69;5005610;28;20059;-34
2022/02/26 07:05:43;;;;;;;4.00;0.70;;;;;;;26.04;27.93;98084.44;5013030;28;20095;-29
2022/02/26 07:08:08;;;;;;;1.63;0.65;;;;;;;26.04;27.98;98093.19;5008690;28;20917;-31
2022/02/26 07:10:34;;;;;;;0.82;0.60;;;;;;;26.03;27.85;98094.09;5006798;28;20037;-30
2022/02/26 07:12:59;;;;;;;0.57;0.50;;;;;;;26.03;28.01;98096.75;5007161;28;20033;-32
2022/02/26 07:15:25;;;;;;;1.02;0.50;;;;;;;26.03;27.85;98091.47;5006219;28;20052;-29
2022/02/26 07:17:50;;;;;;;1.50;0.52;;;;;;;26.04;27.89;98095.81;5007656;28;20056;-29
2022/02/26 07:20:16;;;;;;;1.63;0.70;;;;;;;26.04;27.88;98101.06;5009396;28;20037;-30
2022/02/26 07:22:42;;;;;;;0.93;0.40;;;;;;;26.04;28.06;98098.44;5005790;28;20367;-29
2022/02/26 07:25:08;;;;;;;1.15;0.57;;;;;;;26.06;28.04;98107.16;5008929;28;20032;-31
2022/02/26 07:27:33;;;;;;;3.78;0.60;;;;;;;26.05;27.93;98110.66;5007553;28;20060;-28
2022/02/26 07:29:58;;;;;;;2.05;0.70;;;;;;;26.05;27.92;98115.91;5006135;28;22127;-29
2022/02/26 07:32:24;;;;;;;2.03;0.70;;;;;;;26.05;27.92;98121.16;5014633;28;20033;-28
2022/02/26 07:34:49;;;;;;;9.38;1.65;;;;;;;26.06;27.87;98117.66;5006051;28;20021;-29
2022/02/26 07:37:15;;;;;;;7.82;2.17;;;;;;;26.05;28.00;98120.34;5001392;28;20026;-27
2022/02/26 07:39:40;;;;;;;8.75;2.95;;;;;;;26.05;27.84;98121.16;5003609;28;20718;-29
2022/02/26 07:42:06;;;;;;;10.93;2.97;;;;;;;26.04;27.92;98116.84;5008978;28;20060;-28
2022/02/26 07:44:31;;;;;;;9.80;3.00;;;;;;;26.06;27.99;98122.91;5008161;28;20242;-31
2022/02/26 07:46:57;;;;;;;9.65;2.60;;;;;;;26.06;27.80;98122.03;5007250;28;20458;-31
2022/02/26 07:49:22;;;;;;;9.57;2.70;;;;;;;26.06;27.76;98127.28;5010131;28;20040;-28
2022/02/26 07:51:48;;;;;;;8.57;2.90;;;;;;;26.04;27.84;98129.97;4999732;28;20632;-28
2022/02/26 07:54:13;;;;;;;11.43;3.00;;;;;;;26.02;28.16;98134.44;4991663;28;20709;-29
2022/02/26 07:56:38;;;;;;;12.77;2.42;;;;;;;26.01;28.07;98132.69;5010120;28;20029;-29
2022/02/26 07:59:04;;;;;;;9.98;2.50;;;;;;;26.00;28.26;98141.47;5009955;28;20038;-29
2022/02/26 08:01:29;;;;;;;11.77;2.60;;;;;;;26.00;28.15;98146.72;5007660;28;20095;-28
2022/02/26 08:03:55;;;;;;;10.07;2.80;;;;;;;26.01;28.15;98140.56;5008767;28;20124;-28
2022/02/26 08:06:20;;;;;;;13.35;2.17;;;;;;;26.01;28.28;98151.06;5009018;28;20033;-29
2022/02/26 08:08:47;;;;;;;8.82;1.95;;;;;;;26.03;28.28;98153.66;4991444;28;20030;-29
2022/02/26 08:11:12;;;;;;;5.45;2.30;;;;;;;26.04;28.29;98152.75;5006623;28;20052;-30
2022/02/26 08:13:37;;;;;;;6.88;2.20;;;;;;;26.05;28.29;98157.94;5009217;28;20037;-32
2022/02/26 08:16:03;;;;;;;7.18;2.03;;;;;;;26.06;28.28;98150.94;5008270;28;20886;-30
2022/02/26 08:18:29;;;;;;;7.68;2.00;;;;;;;26.06;28.29;98159.69;5009038;28;20040;-30
2022/02/26 08:20:55;;;;;;;5.57;2.00;;;;;;;26.08;28.21;98162.25;5007010;28;20431;-31
2022/02/26 08:23:20;;;;;;;9.85;2.20;;;;;;;26.08;28.12;98156.97;5009788;28;20029;-29
2022/02/26 08:25:46;;;;;;;5.00;2.13;;;;;;;26.08;28.29;98162.25;5007659;28;20040;-32
2022/02/26 08:28:11;;;;;;;5.20;1.98;;;;;;;26.09;28.22;98153.47;5006248;28;23923;-29
2022/02/26 08:30:37;;;;;;;6.82;2.25;;;;;;;26.10;28.00;98161.28;5006529;28;20041;-30
2022/02/26 08:33:02;;;;;;;8.35;2.20;;;;;;;26.10;28.23;98156.03;5004909;28;20037;-28
2022/02/26 08:35:27;;;;;;;5.90;2.28;;;;;;;26.11;28.18;98162.16;4987543;28;20275;-29
2022/02/26 08:37:53;;;;;;;9.18;2.20;;;;;;;26.13;28.22;98169.97;5012995;28;20037;-29
2022/02/26 08:40:18;;;;;;;7.95;2.17;;;;;;;26.13;28.23;98164.72;5011482;28;20478;-30
2022/02/26 08:42:44;;;;;;;7.88;1.90;;;;;;;26.14;28.37;98163.81;5014817;28;20021;-32
2022/02/26 08:45:10;;;;;;;17.80;2.28;;;;;;;26.15;28.10;98165.53;5010286;28;20048;-29
2022/02/26 08:47:35;;;;;;;8.65;2.10;;;;;;;26.14;28.08;98162.06;5012574;28;20634;-31
2022/02/26 08:50:01;;;;;;;11.57;1.90;;;;;;;26.16;28.19;98162.00;5015529;28;20419;-28
2022/02/26 08:52:26;;;;;;;6.43;1.95;;;;;;;26.17;28.23;98158.47;5018375;28;20116;-30
2022/02/26 08:54:52;;;;;;;6.72;1.73;;;;;;;26.17;28.35;98161.09;5012737;28;20057;-29
2022/02/26 08:57:21;;;;;;;4.10;1.85;;;;;;;26.17;28.30;98150.59;5012312;28;20034;-30
2022/02/26 08:59:46;;;;;;;3.58;1.60;;;;;;;26.18;28.35;98152.28;5010028;28;20109;-29
2022/02/26 09:02:12;;;;;;;8.35;2.22;;;;;;;26.18;28.23;98157.56;5012963;28;20029;-31
2022/02/26 09:04:37;;;;;;;5.38;1.80;;;;;;;26.19;28.40;98154.00;5012843;28;20026;-29
2022/02/26 09:07:03;;;;;;;9.27;2.10;;;;;;;26.19;28.31;98148.75;5010375;28;20034;-30
2022/02/26 09:09:28;;;;;;;6.05;1.90;;;;;;;26.21;28.43;98153.03;5002810;28;20029;-28
2022/02/26 09:11:54;;;;;;;4.68;1.55;;;;;;;26.23;28.36;98153.88;4985834;28;20033;-28
2022/02/26 09:14:19;;;;;;;4.75;1.75;;;;;;;26.23;28.50;98147.75;5001035;28;21124;-29
2022/02/26 09:16:45;;;;;;;4.35;1.80;;;;;;;26.23;28.49;98143.34;5002126;28;22827;-28
2022/02/26 09:19:11;;;;;;;5.53;1.83;;;;;;;26.25;28.59;98143.31;5005174;28;20863;-29
2022/02/26 09:21:36;;;;;;;5.18;2.03;;;;;;;26.25;28.52;98145.94;5005415;28;20034;-29
2022/02/26 09:24:02;;;;;;;5.20;1.52;;;;;;;26.26;28.66;98150.31;5006563;28;20036;-38
2022/02/26 09:26:28;;;;;;;4.30;1.63;;;;;;;26.27;28.64;98144.13;5003757;28;20030;-30
2022/02/26 09:28:53;;;;;;;5.45;1.55;;;;;;;26.28;28.56;98148.47;5007818;28;20029;-30
2022/02/26 09:31:19;;;;;;;7.85;1.83;;;;;;;26.29;28.48;98144.97;5014719;28;20801;-29
2022/02/26 09:33:46;;;;;;;3.17;1.70;;;;;;;26.30;28.65;98145.78;5010963;28;20052;-29
2022/02/26 09:36:11;;;;;;;4.95;1.88;;;;;;;26.30;28.64;98146.66;5013836;28;20033;-30
2022/02/26 09:38:38;;;;;;;4.65;1.77;;;;;;;26.31;28.54;98137.03;5008756;28;20041;-29
2022/02/26 09:41:03;;;;;;;4.95;1.52;;;;;;;26.32;28.45;98141.38;5009450;28;20033;-29
2022/02/26 09:43:29;;;;;;;3.05;1.42;;;;;;;26.32;28.55;98144.84;5007826;28;20021;-27
2022/02/26 09:45:55;;;;;;;4.20;1.60;;;;;;;26.33;28.61;98141.31;5008645;28;20475;-31
2022/02/26 09:48:20;;;;;;;28.05;2.85;;;;;;;26.23;23.12;98143.34;5007799;28;20033;-30
2022/02/26 09:50:45;;;;;;;11.55;2.35;;;;;;;26.04;21.21;98143.09;5006209;28;20116;-31
2022/02/26 09:53:12;;;;;;;7.10;2.33;;;;;;;25.81;20.04;98144.72;5009794;28;20029;-29
2022/02/26 09:55:37;;;;;;;9.50;2.10;;;;;;;25.54;19.14;98143.75;4994902;28;20049;-28
2022/02/26 09:58:03;;;;;;;15.93;2.45;;;;;;;25.29;20.10;98153.22;4995473;28;20025;-30
2022/02/26 10:00:28;;;;;;;18.30;2.45;;;;;;;25.15;21.77;98153.66;5007354;28;20029;-30
2022/02/26 10:02:54;;;;;;;7.25;1.55;;;;;;;25.05;22.46;98150.41;5011073;28;20036;-29
2022/02/26 10:05:19;;;;;;;13.68;1.90;;;;;;;25.00;23.16;98149.69;5008501;28;20030;-28
2022/02/26 10:07:47;;;;;;;6.35;1.90;;;;;;;24.97;23.41;98147.16;5011219;28;20183;-29
2022/02/26 10:10:42;;;;;;;14.32;1.90;;;;;;;25.00;24.02;98156.69;5006560;28;20062;-29
2022/02/26 10:13:07;;;;;;;8.65;2.05;;;;;;;25.02;24.15;98155.75;4993194;28;20626;-29
2022/02/26 10:15:38;;;;;;;5.75;1.90;;;;;;;25.05;24.56;98158.28;4992053;28;20302;-29
2022/02/26 10:18:07;;;;;;;5.68;1.77;;;;;;;25.10;24.62;98152.94;5011838;28;20766;-30
2022/02/26 10:20:33;;;;;;;16.20;2.20;;;;;;;25.15;24.95;98152.78;5010589;28;20044;-28
2022/02/26 10:22:59;;;;;;;12.38;2.08;;;;;;;25.20;25.04;98155.28;5013246;28;20033;-29
2022/02/26 10:25:27;;;;;;;7.70;2.28;;;;;;;25.25;25.10;98156.84;5003421;28;20365;-29
2022/02/26 10:28:00;;;;;;;8.57;2.20;;;;;;;25.28;25.50;98155.94;5013570;28;20766;-31
2022/02/26 10:30:34;;;;;;;11.45;1.90;;;;;;;25.33;25.53;98168.88;5012859;28;20037;-32
2022/02/26 10:33:12;;;;;;;10.10;2.25;;;;;;;25.38;25.49;98165.22;5005752;28;20025;-29
2022/02/26 10:35:43;;;;;;;7.47;2.17;;;;;;;25.42;25.72;98158.13;4992290;28;20034;-28
2022/02/26 10:38:12;;;;;;;18.70;2.20;;;;;;;25.45;25.73;98158.88;5008886;28;20044;-30
2022/02/26 10:40:51;;;;;;;10.80;2.05;;;;;;;25.51;25.69;98157.84;5008816;28;20035;-30
2022/02/26 10:43:37;;;;;;;15.48;2.20;;;;;;;25.54;25.94;98156.88;5006421;28;20034;-29
2022/02/26 10:46:17;;;;;;;9.55;2.17;;;;;;;25.58;25.91;98148.03;5003591;28;20034;-30
2022/02/26 10:48:42;;;;;;;15.50;2.88;;;;;;;25.61;25.99;98142.72;4986962;28;20091;-31
2022/02/26 10:51:15;;;;;;;7.25;2.10;;;;;;;25.64;25.96;98139.13;5000592;28;20025;-29
2022/02/26 10:53:40;;;;;;;16.90;2.80;;;;;;;25.67;26.13;98136.41;4999548;28;20029;-30
2022/02/26 10:56:06;;;;;;;13.75;2.17;;;;;;;25.70;26.07;98137.16;4980580;28;20107;-32
2022/02/26 10:58:31;;;;;;;9.77;2.30;;;;;;;25.72;26.19;98134.50;4999682;28;20026;-31
2022/02/26 11:01:08;;;;;;;7.28;2.28;;;;;;;25.76;26.20;98141.38;4998452;28;20041;-30
2022/02/26 11:03:34;;;;;;;11.90;2.22;;;;;;;25.78;26.30;98143.97;4983725;28;20594;-27
2022/02/26 11:06:00;;;;;;;8.05;2.33;;;;;;;25.80;26.31;98143.00;5007349;28;20255;-30
2022/02/26 11:08:25;;;;;;;8.48;2.30;;;;;;;25.82;26.24;98140.31;5006323;28;20391;-30
2022/02/26 11:10:51;;;;;;;8.90;2.00;;;;;;;25.84;26.38;98138.50;4969569;28;20612;-30
2022/02/26 11:13:17;;;;;;;5.40;1.90;;;;;;;25.85;26.45;98134.13;4998654;28;20677;-29
2022/02/26 11:15:45;;;;;;;5.57;2.15;;;;;;;25.88;26.61;98134.00;4980801;28;20033;-31
2022/02/26 11:18:12;;;;;;;5.40;1.83;;;;;;;25.91;26.58;98133.91;5001712;28;20131;-29
2022/02/26 11:20:38;;;;;;;6.68;1.77;;;;;;;25.90;26.60;98126.94;4985861;28;20061;-27
2022/02/26 11:23:03;;;;;;;10.57;2.10;;;;;;;25.92;26.83;98131.22;4988599;28;20037;-29
2022/02/26 11:25:30;;;;;;;6.60;1.83;;;;;;;25.94;26.68;98132.03;4972931;28;20038;-30
2022/02/26 11:27:55;;;;;;;5.57;2.00;;;;;;;25.96;26.99;98129.34;4996438;28;20033;-29